Time;durP1;ratioP1;P1;durP2;ratioP2;P2;SDS_P1;SDS_P2;PMS_P1;PMS_P2;Temp;Humidity;BMP_temperature;BMP_pressure;BME280_temperature;BME280_humidity;BME280_pressure;Samples;Min_cycle;Max_cycle;Signal;HPM_P1;HPM_P2
2023/05/30 00:01:44;;;;;;;8.20;6.20;;;;;;;12.70;75.62;96708.30;106810;1275;24068;-85
2023/05/30 00:05:12;;;;;;;10.00;6.50;;;;;;;12.74;75.81;96719.37;106681;1275;138033;-85
2023/05/30 00:08:38;;;;;;;7.40;5.10;;;;;;;12.72;76.03;96714.66;106735;1266;22556;-85
2023/05/30 00:12:06;;;;;;;10.70;6.10;;;;;;;12.68;76.64;96726.08;106695;1275;138325;-86
2023/05/30 00:15:33;;;;;;;10.20;6.10;;;;;;;12.66;77.20;96730.74;106748;1281;22608;-85
2023/05/30 00:19:00;;;;;;;10.30;6.50;;;;;;;12.62;77.50;96720.77;106855;1274;22520;-85
2023/05/30 00:22:28;;;;;;;11.50;7.30;;;;;;;12.62;77.39;96720.25;106807;1281;138924;-85
2023/05/30 00:25:56;;;;;;;9.80;5.90;;;;;;;12.63;77.07;96723.06;106708;1281;25493;-85
2023/05/30 00:29:21;;;;;;;10.90;6.00;;;;;;;12.56;77.41;96719.17;106638;1273;138011;-85
2023/05/30 00:32:46;;;;;;;;;;;;;;;;;;;;;
2023/05/30 00:36:15;;;;;;;11.50;5.80;;;;;;;12.39;78.25;96706.32;106730;1281;22523;-86
2023/05/30 00:39:43;;;;;;;9.00;6.10;;;;;;;12.29;78.73;96706.48;106836;1281;24308;-85
2023/05/30 00:43:10;;;;;;;8.20;5.70;;;;;;;12.28;79.08;96711.80;109853;1260;22509;-86
2023/05/30 00:46:37;;;;;;;8.20;6.20;;;;;;;12.27;79.17;96713.48;109685;1279;138220;-86
2023/05/30 00:50:05;;;;;;;12.00;6.60;;;;;;;12.19;79.24;96717.07;106657;1283;23092;-86
2023/05/30 00:53:32;;;;;;;9.00;5.90;;;;;;;12.18;79.35;96723.14;106581;1283;138224;-85
2023/05/30 00:56:59;;;;;;;7.70;5.20;;;;;;;12.13;79.24;96716.84;106723;1277;22527;-85
2023/05/30 01:00:26;;;;;;;10.50;6.00;;;;;;;12.06;79.55;96715.56;106612;1278;22636;-86
2023/05/30 01:03:53;;;;;;;8.80;5.80;;;;;;;11.99;80.09;96718.44;106654;1283;25368;-85
2023/05/30 01:07:12;;;;;;;;;;;;;;;;;;;;;
2023/05/30 01:10:41;;;;;;;10.10;6.20;;;;;;;11.87;80.80;96722.02;106755;1280;138766;-85
2023/05/30 01:14:23;;;;;;;11.90;6.40;;;;;;;11.83;81.49;96717.59;109784;1261;22391;-86
2023/05/30 01:18:09;;;;;;;9.40;6.50;;;;;;;11.81;81.37;96730.99;106164;1284;138271;-85
2023/05/30 01:21:40;;;;;;;10.40;7.50;;;;;;;11.79;81.68;96729.85;106405;1284;25377;-85
2023/05/30 01:25:07;;;;;;;10.20;8.10;;;;;;;11.78;81.88;96730.52;106625;1284;23937;-86
2023/05/30 01:28:23;;;;;;;;;;;;;;;;;;;;;
2023/05/30 01:31:52;;;;;;;12.20;8.70;;;;;;;11.70;82.47;96724.31;109760;1262;22534;-87
2023/05/30 01:35:20;;;;;;;12.10;8.40;;;;;;;11.66;83.18;96720.95;107086;1280;138450;-85
2023/05/30 01:38:47;;;;;;;15.10;9.30;;;;;;;11.68;83.18;96721.02;106620;1275;23917;-85
2023/05/30 01:42:26;;;;;;;13.20;9.80;;;;;;;11.70;83.18;96717.30;106465;1283;138451;-86
2023/05/30 01:46:09;;;;;;;12.60;9.40;;;;;;;11.69;83.44;96712.10;106676;1284;24386;-86
2023/05/30 01:49:39;;;;;;;16.10;9.90;;;;;;;11.66;83.31;96711.70;106230;1284;24073;-85
2023/05/30 01:53:07;;;;;;;14.90;9.60;;;;;;;11.66;83.78;96711.55;106487;1283;139011;-85
2023/05/30 01:56:33;;;;;;;12.70;9.80;;;;;;;11.65;84.43;96707.81;106602;1283;25520;-85
2023/05/30 02:00:01;;;;;;;16.10;10.80;;;;;;;11.67;84.61;96705.52;106582;1269;138280;-85
2023/05/30 02:03:28;;;;;;;14.40;11.00;;;;;;;11.68;84.48;96712.69;106586;1277;22553;-86
2023/05/30 02:06:56;;;;;;;15.70;11.50;;;;;;;11.68;84.86;96711.29;106533;1280;24053;-85
2023/05/30 02:10:22;;;;;;;15.30;10.40;;;;;;;11.69;84.62;96711.05;106521;1284;138651;-85
2023/05/30 02:13:50;;;;;;;14.70;10.30;;;;;;;11.69;84.60;96713.74;106576;1284;22530;-85
2023/05/30 02:17:20;;;;;;;13.70;9.80;;;;;;;11.71;84.34;96713.24;106483;1284;139401;-85
2023/05/30 02:20:45;;;;;;;14.70;9.60;;;;;;;11.70;84.64;96713.31;106692;1278;22570;-85
2023/05/30 02:24:13;;;;;;;12.90;9.50;;;;;;;11.68;84.58;96707.48;106442;1283;138225;-85
2023/05/30 02:27:40;;;;;;;15.70;10.10;;;;;;;11.68;84.27;96710.05;106606;1284;24218;-85
2023/05/30 02:31:07;;;;;;;16.30;10.90;;;;;;;11.68;84.33;96710.95;106618;1284;24248;-85
2023/05/30 02:34:36;;;;;;;14.10;10.20;;;;;;;11.67;84.19;96707.79;106695;1275;138687;-87
2023/05/30 02:38:03;;;;;;;17.40;9.70;;;;;;;11.65;84.16;96708.89;106705;1283;25437;-85
2023/05/30 02:41:30;;;;;;;15.60;10.60;;;;;;;11.63;84.43;96706.55;106608;1277;138311;-85
2023/05/30 02:44:58;;;;;;;12.10;9.40;;;;;;;11.63;85.00;96710.06;106697;1283;22524;-85
2023/05/30 02:48:25;;;;;;;14.20;8.20;;;;;;;11.62;85.33;96708.70;106637;1279;138542;-85
2023/05/30 02:51:52;;;;;;;12.60;8.40;;;;;;;11.62;85.83;96715.02;106725;1278;25390;-86
2023/05/30 02:55:20;;;;;;;13.00;8.20;;;;;;;11.61;86.07;96714.29;106705;1283;22646;-85
2023/05/30 02:58:47;;;;;;;13.70;8.80;;;;;;;11.60;85.75;96718.59;106762;1283;138889;-85
2023/05/30 03:02:14;;;;;;;12.40;9.20;;;;;;;11.58;85.85;96719.65;106621;1281;23382;-85
2023/05/30 03:05:42;;;;;;;13.50;8.20;;;;;;;11.57;85.64;96720.13;106591;1283;138499;-85
2023/05/30 03:09:08;;;;;;;13.60;8.90;;;;;;;11.58;85.56;96723.46;106718;1267;24248;-85
2023/05/30 03:12:36;;;;;;;11.60;8.60;;;;;;;11.60;85.82;96725.77;106676;1283;138324;-85
2023/05/30 03:15:55;;;;;;;11.30;8.50;;;;;;;11.61;85.95;96730.42;106728;1283;23253;-85
2023/05/30 03:19:23;;;;;;;11.90;8.80;;;;;;;11.59;85.91;96735.68;106698;1283;22533;-85
2023/05/30 03:22:50;;;;;;;10.50;8.10;;;;;;;11.58;85.91;96747.08;106651;1283;138986;-85
2023/05/30 03:26:17;;;;;;;10.50;8.00;;;;;;;11.58;86.62;96748.96;106665;1275;22748;-85
2023/05/30 03:29:45;;;;;;;12.80;8.00;;;;;;;11.57;86.68;96751.39;106589;1283;138306;-87
2023/05/30 03:33:12;;;;;;;10.50;7.00;;;;;;;11.58;86.90;96757.48;106603;1283;22531;-85
2023/05/30 03:36:40;;;;;;;11.70;6.90;;;;;;;11.60;86.94;96760.55;106476;1280;138217;-85
2023/05/30 03:40:08;;;;;;;10.20;7.10;;;;;;;11.62;87.02;96763.35;106664;1283;22637;-85
2023/05/30 03:43:27;;;;;;;11.10;6.90;;;;;;;11.64;87.04;96765.97;106653;1280;22520;-85
2023/05/30 03:46:54;;;;;;;9.50;7.30;;;;;;;11.68;87.19;96771.42;106428;1284;139213;-85
2023/05/30 03:50:22;;;;;;;10.00;6.90;;;;;;;11.72;87.28;96772.30;106599;1284;22524;-85
2023/05/30 03:53:49;;;;;;;12.70;6.90;;;;;;;11.76;87.18;96775.69;106468;1284;138825;-85
2023/05/30 03:57:16;;;;;;;12.40;8.20;;;;;;;11.81;86.65;96778.10;106561;1277;22522;-85
2023/05/30 04:00:43;;;;;;;13.10;8.80;;;;;;;11.87;85.24;96783.71;106480;1284;138261;-85
2023/05/30 04:04:11;;;;;;;13.90;8.40;;;;;;;11.93;84.76;96786.48;106573;1284;22598;-85
2023/05/30 04:07:38;;;;;;;15.00;10.10;;;;;;;12.02;84.80;96789.07;106630;1280;22588;-85
2023/05/30 04:11:05;;;;;;;11.70;8.90;;;;;;;12.09;84.29;96788.25;106428;1284;139803;-85
2023/05/30 04:14:32;;;;;;;17.40;9.00;;;;;;;12.15;83.75;96793.52;106542;1284;22545;-85
2023/05/30 04:18:01;;;;;;;11.50;8.10;;;;;;;12.21;83.72;96794.04;106449;1284;138208;-85
2023/05/30 04:21:27;;;;;;;11.40;7.70;;;;;;;12.27;84.33;96796.14;106644;1284;22548;-85
2023/05/30 04:24:55;;;;;;;10.70;7.80;;;;;;;12.35;84.01;96800.82;106528;1284;138238;-85
2023/05/30 04:28:22;;;;;;;10.70;8.00;;;;;;;12.41;83.56;96802.59;106638;1284;22957;-85
2023/05/30 04:31:49;;;;;;;10.10;7.80;;;;;;;12.45;83.71;96801.88;106646;1284;22623;-85
2023/05/30 04:35:16;;;;;;;14.20;8.30;;;;;;;12.49;83.72;96799.46;106581;1279;138353;-85
2023/05/30 04:38:45;;;;;;;12.10;8.40;;;;;;;12.54;83.99;96799.62;106708;1282;25331;-84
2023/05/30 04:42:12;;;;;;;13.40;7.20;;;;;;;12.57;84.31;96792.89;106597;1278;139266;-85
2023/05/30 04:45:38;;;;;;;9.10;6.70;;;;;;;12.61;84.73;96798.86;106661;1283;22530;-84
2023/05/30 04:49:06;;;;;;;10.10;6.60;;;;;;;12.68;85.18;96795.63;106563;1280;139353;-84
2023/05/30 04:52:33;;;;;;;11.50;6.40;;;;;;;12.71;85.83;96796.68;106657;1278;24357;-85
2023/05/30 04:56:00;;;;;;;9.90;7.00;;;;;;;12.73;86.17;96797.66;106663;1283;24261;-85
2023/05/30 04:59:27;;;;;;;10.90;7.10;;;;;;;12.74;86.24;96795.50;106591;1281;138817;-85
2023/05/30 05:02:55;;;;;;;9.70;6.60;;;;;;;12.76;86.56;96802.10;106739;1280;22561;-85
2023/05/30 05:06:22;;;;;;;10.10;7.10;;;;;;;12.79;85.92;96802.77;106575;1278;138398;-85
2023/05/30 05:09:49;;;;;;;11.10;6.80;;;;;;;12.80;86.19;96802.48;106702;1283;22534;-85
2023/05/30 05:13:18;;;;;;;11.30;7.00;;;;;;;12.83;86.84;96803.33;106645;1281;26657;-85
2023/05/30 05:16:45;;;;;;;11.60;7.30;;;;;;;12.89;87.47;96803.33;106624;1283;24393;-85
2023/05/30 05:20:13;;;;;;;13.30;7.80;;;;;;;12.96;87.36;96806.47;106687;1283;22608;-85
2023/05/30 05:27:07;;;;;;;15.10;10.30;;;;;;;13.10;84.80;96819.53;106616;1283;23631;-85
2023/05/30 05:30:34;;;;;;;12.20;8.60;;;;;;;13.15;84.38;96817.52;106529;1283;138358;-85
2023/05/30 05:34:02;;;;;;;10.10;7.80;;;;;;;13.22;84.72;96822.48;106721;1283;22550;-85
2023/05/30 05:37:30;;;;;;;11.70;8.30;;;;;;;13.27;84.01;96826.38;106595;1280;24247;-85
2023/05/30 05:40:57;;;;;;;14.40;8.40;;;;;;;13.34;83.86;96831.33;106623;1284;22549;-85
2023/05/30 05:44:24;;;;;;;14.20;9.30;;;;;;;13.40;83.39;96836.70;106557;1284;24214;-85
2023/05/30 05:47:51;;;;;;;12.70;8.70;;;;;;;13.40;82.42;96839.06;106526;1282;138291;-83
2023/05/30 05:51:18;;;;;;;13.40;8.90;;;;;;;13.45;82.82;96844.28;106537;1277;23966;-84
2023/05/30 05:54:46;;;;;;;12.70;8.60;;;;;;;13.50;83.45;96841.11;106496;1277;138530;-84
2023/05/30 05:58:14;;;;;;;12.90;8.20;;;;;;;13.54;82.90;96846.73;106624;1277;25239;-84
2023/05/30 06:01:42;;;;;;;11.90;8.60;;;;;;;13.58;81.49;96841.70;106713;1283;22519;-84
2023/05/30 06:05:12;;;;;;;14.70;9.10;;;;;;;13.66;81.27;96853.48;106590;1280;24224;-83
2023/05/30 06:08:40;;;;;;;15.30;8.90;;;;;;;13.71;81.54;96850.04;106577;1284;22527;-84
2023/05/30 06:12:07;;;;;;;15.20;9.80;;;;;;;13.78;81.95;96853.45;106518;1281;138402;-84
2023/05/30 06:15:33;;;;;;;19.50;9.10;;;;;;;13.85;81.71;96860.02;106698;1284;24217;-84
2023/05/30 06:19:01;;;;;;;12.00;8.40;;;;;;;13.90;80.33;96866.97;106473;1281;138178;-84
2023/05/30 06:22:28;;;;;;;16.40;9.30;;;;;;;13.95;79.66;96865.42;106586;1284;23308;-84
2023/05/30 06:25:55;;;;;;;14.30;9.30;;;;;;;14.02;80.55;96865.85;106559;1267;24351;-84
2023/05/30 06:29:22;;;;;;;12.60;7.70;;;;;;;14.08;80.66;96867.69;106529;1282;138384;-84
2023/05/30 06:32:50;;;;;;;10.00;7.20;;;;;;;14.14;81.38;96865.06;106618;1283;22616;-84
2023/05/30 06:36:16;;;;;;;12.40;7.80;;;;;;;14.19;80.48;96866.95;106602;1283;138639;-84
2023/05/30 06:39:44;;;;;;;11.50;8.20;;;;;;;14.23;80.17;96869.23;106829;1279;24220;-84
2023/05/30 06:43:11;;;;;;;14.90;7.80;;;;;;;14.26;80.08;96875.63;106648;1283;138864;-84
2023/05/30 06:46:38;;;;;;;12.40;9.40;;;;;;;14.28;80.36;96877.89;106646;1278;22540;-84
2023/05/30 06:50:06;;;;;;;17.00;8.90;;;;;;;14.31;79.64;96882.04;106716;1283;24269;-84
2023/05/30 06:53:33;;;;;;;14.90;9.00;;;;;;;14.32;79.96;96888.54;106555;1283;138478;-84
2023/05/30 06:57:04;;;;;;;21.10;11.00;;;;;;;14.38;80.01;96891.27;106714;1283;26522;-84
2023/05/30 07:00:28;;;;;;;14.40;8.20;;;;;;;14.44;79.42;96893.89;106595;1276;138797;-83
2023/05/30 07:03:55;;;;;;;11.60;8.10;;;;;;;14.47;79.23;96896.84;106628;1283;22587;-84
2023/05/30 07:07:22;;;;;;;13.00;8.30;;;;;;;14.50;78.87;96898.21;106760;1283;138790;-84
2023/05/30 07:10:50;;;;;;;11.30;7.70;;;;;;;14.55;78.92;96899.59;106712;1283;25421;-84
2023/05/30 07:14:17;;;;;;;13.10;8.90;;;;;;;14.63;80.55;96895.81;106743;1283;22534;-84
2023/05/30 07:17:44;;;;;;;13.10;7.30;;;;;;;14.66;79.43;96893.98;106618;1283;138365;-83
2023/05/30 07:21:11;;;;;;;12.10;6.80;;;;;;;14.70;80.02;96899.47;106727;1281;23160;-89
2023/05/30 07:24:38;;;;;;;11.00;7.10;;;;;;;14.69;80.66;96897.97;106713;1283;138712;-88
2023/05/30 07:28:06;;;;;;;10.70;7.10;;;;;;;14.71;81.39;96899.83;107406;1283;22537;-88
2023/05/30 07:31:33;;;;;;;13.00;7.90;;;;;;;14.75;80.76;96900.69;106681;1283;138237;-88
2023/05/30 07:35:00;;;;;;;12.20;6.80;;;;;;;14.78;80.98;96898.88;106875;1281;22496;-89
2023/05/30 07:38:28;;;;;;;10.30;6.80;;;;;;;14.85;80.84;96897.60;106803;1283;23428;-88
2023/05/30 07:41:55;;;;;;;16.50;9.50;;;;;;;14.89;80.48;96897.16;106661;1283;139533;-87
2023/05/30 07:45:23;;;;;;;13.70;8.10;;;;;;;14.90;79.24;96899.70;106637;1282;22572;-87
2023/05/30 07:48:50;;;;;;;13.00;8.10;;;;;;;14.94;80.68;96900.19;106583;1279;138663;-87
2023/05/30 07:52:17;;;;;;;14.40;8.60;;;;;;;15.03;81.90;96898.50;106706;1281;25352;-86
2023/05/30 07:55:46;;;;;;;12.50;9.30;;;;;;;15.12;80.79;96893.20;106631;1278;138894;-86
2023/05/30 07:59:12;;;;;;;15.50;9.60;;;;;;;15.23;79.77;96895.16;106623;1280;24386;-87
2023/05/30 08:02:39;;;;;;;14.50;9.00;;;;;;;15.34;79.57;96892.44;106703;1283;25393;-87
2023/05/30 08:06:07;;;;;;;11.50;8.80;;;;;;;15.51;80.58;96892.11;106551;1276;138476;-87
2023/05/30 08:09:36;;;;;;;14.30;8.50;;;;;;;15.70;79.34;96891.02;106710;1283;25410;-87
2023/05/30 08:13:01;;;;;;;12.40;9.00;;;;;;;15.89;78.80;96896.91;106624;1283;138762;-87
2023/05/30 08:16:50;;;;;;;12.60;8.30;;;;;;;16.06;77.83;96889.15;102440;1278;5787962;-87
2023/05/30 08:19:57;;;;;;;;;;;;;;;;;;;;;
2023/05/30 08:23:26;;;;;;;11.90;7.70;;;;;;;16.40;76.56;96889.85;106704;1282;23032;-86
2023/05/30 08:26:53;;;;;;;12.00;7.60;;;;;;;16.55;76.40;96888.04;106742;1283;24391;-87
2023/05/30 08:30:20;;;;;;;13.90;7.40;;;;;;;16.72;76.73;96890.27;106611;1283;139289;-87
2023/05/30 08:33:47;;;;;;;11.20;6.90;;;;;;;16.89;76.96;96885.48;106794;1283;25404;-87
2023/05/30 08:37:15;;;;;;;14.80;7.40;;;;;;;16.97;75.51;96890.41;106565;1276;138355;-87
2023/05/30 08:40:43;;;;;;;12.10;8.50;;;;;;;17.01;76.05;96902.27;106707;1283;23025;-88
2023/05/30 08:44:10;;;;;;;13.90;8.50;;;;;;;17.04;75.45;96905.39;106585;1281;22590;-87
2023/05/30 08:47:37;;;;;;;10.40;7.60;;;;;;;17.09;76.01;96907.73;106601;1284;23630;-87
2023/05/30 08:51:04;;;;;;;11.10;7.40;;;;;;;17.11;74.99;96905.66;106561;1284;23954;-86
2023/05/30 08:54:32;;;;;;;13.70;7.90;;;;;;;17.14;74.62;96903.86;106532;1284;138572;-87
2023/05/30 08:58:08;;;;;;;11.10;7.00;;;;;;;17.15;74.44;96908.95;106606;1277;22591;-87
2023/05/30 09:01:35;;;;;;;12.00;6.30;;;;;;;17.13;73.44;96908.40;106296;1284;138276;-87
2023/05/30 09:05:03;;;;;;;15.30;7.10;;;;;;;17.13;72.16;96910.02;106654;1284;22560;-87
2023/05/30 09:08:30;;;;;;;11.90;6.10;;;;;;;17.17;73.57;96910.15;106629;1284;25342;-87
2023/05/30 09:11:57;;;;;;;10.30;7.40;;;;;;;17.22;72.34;96907.80;106589;1284;138474;-87
2023/05/30 09:15:24;;;;;;;12.30;6.40;;;;;;;17.29;72.94;96908.92;106621;1284;22587;-87
2023/05/30 09:18:52;;;;;;;10.10;6.90;;;;;;;17.34;72.37;96910.29;106525;1280;138249;-87
2023/05/30 09:22:19;;;;;;;12.00;7.60;;;;;;;17.33;72.17;96905.33;106672;1279;22566;-87
2023/05/30 09:25:55;;;;;;;11.10;7.30;;;;;;;17.34;72.06;96904.02;106469;1284;138731;-87
2023/05/30 09:29:26;;;;;;;10.50;6.70;;;;;;;17.41;72.01;96898.49;106387;1282;22803;-87
2023/05/30 09:33:14;;;;;;;10.20;7.30;;;;;;;17.49;70.63;96905.92;106682;1280;24304;-87
2023/05/30 09:36:26;;;;;;;10.80;7.50;;;;;;;17.51;72.03;96902.42;106523;1284;138401;-88
2023/05/30 09:39:55;;;;;;;12.50;7.40;;;;;;;17.55;71.84;96905.55;106685;1282;23473;-87
2023/05/30 09:43:28;;;;;;;8.40;5.60;;;;;;;17.53;73.20;96902.01;106404;1270;138314;-87
2023/05/30 09:46:55;;;;;;;8.80;6.60;;;;;;;17.55;70.94;96904.90;106730;1284;24397;-88
2023/05/30 09:50:22;;;;;;;13.40;8.20;;;;;;;17.60;70.27;96905.48;106583;1284;137962;-88
2023/05/30 09:53:49;;;;;;;13.90;7.40;;;;;;;17.77;69.88;96905.35;106643;1284;24241;-88
2023/05/30 09:57:17;;;;;;;12.20;6.80;;;;;;;17.78;70.66;96902.14;106625;1283;24114;-88
2023/05/30 10:01:15;;;;;;;8.50;6.20;;;;;;;17.76;69.94;96903.34;106541;1284;137681;-88
2023/05/30 10:04:23;;;;;;;9.50;6.60;;;;;;;17.75;69.83;96900.92;106345;1280;22594;-88
2023/05/30 10:07:49;;;;;;;12.10;5.60;;;;;;;17.71;69.82;96900.44;106429;1284;137399;-88
2023/05/30 10:11:18;;;;;;;14.70;7.60;;;;;;;17.70;68.74;96900.29;106640;1284;24370;-89
2023/05/30 10:14:46;;;;;;;10.50;5.90;;;;;;;17.80;69.07;96896.98;106577;1284;22564;-88
2023/05/30 10:18:12;;;;;;;11.00;6.40;;;;;;;17.90;68.75;96896.42;106490;1284;137642;-87
2023/05/30 10:21:40;;;;;;;14.30;6.20;;;;;;;17.90;67.56;96893.64;106679;1284;24229;-87
2023/05/30 10:25:07;;;;;;;10.30;6.20;;;;;;;17.97;68.49;96895.96;106512;1284;138399;-87
2023/05/30 10:28:35;;;;;;;10.10;5.60;;;;;;;18.09;67.34;96896.67;106624;1284;23350;-87
2023/05/30 10:32:02;;;;;;;9.10;5.80;;;;;;;18.10;66.97;96896.83;106567;1280;137924;-88
2023/05/30 10:35:30;;;;;;;11.60;5.80;;;;;;;18.12;66.78;96895.51;106617;1283;25497;-87
2023/05/30 10:38:59;;;;;;;10.60;6.10;;;;;;;18.10;67.95;96894.10;106637;1277;22533;-87
2023/05/30 10:42:38;;;;;;;7.80;5.00;;;;;;;18.05;66.48;96894.15;106541;1283;138124;-87
2023/05/30 10:46:08;;;;;;;8.00;5.20;;;;;;;18.04;66.62;96893.66;106207;1284;22639;-87
2023/05/30 10:50:09;;;;;;;10.20;5.90;;;;;;;18.08;66.85;96892.91;106392;1284;137894;-88
2023/05/30 10:53:18;;;;;;;8.90;5.50;;;;;;;18.23;65.08;96890.58;106626;1275;22743;-88
2023/05/30 10:56:45;;;;;;;6.50;4.50;;;;;;;18.43;67.38;96888.64;106623;1276;22533;-88
2023/05/30 11:00:15;;;;;;;8.10;4.80;;;;;;;18.60;64.57;96884.17;106625;1284;22791;-88
2023/05/30 11:03:42;;;;;;;7.50;4.50;;;;;;;18.72;64.55;96885.15;106602;1284;22617;-88
2023/05/30 11:07:09;;;;;;;8.00;4.90;;;;;;;18.79;66.22;96885.51;106502;1283;137736;-87
2023/05/30 11:10:42;;;;;;;8.70;5.10;;;;;;;18.75;64.82;96883.14;106602;1282;22808;-87
2023/05/30 11:14:10;;;;;;;11.10;5.70;;;;;;;18.84;63.35;96880.10;106402;1283;138012;-88
2023/05/30 11:17:49;;;;;;;13.50;4.80;;;;;;;18.96;62.77;96880.16;106638;1283;22620;-88
2023/05/30 11:21:17;;;;;;;7.00;4.80;;;;;;;18.96;62.44;96881.53;106610;1284;25586;-87
2023/05/30 11:25:02;;;;;;;8.10;4.50;;;;;;;18.88;64.65;96879.44;106556;1276;138039;-87
2023/05/30 11:28:45;;;;;;;7.50;4.00;;;;;;;18.75;63.80;96888.08;106155;1283;22731;-87
2023/05/30 11:32:16;;;;;;;6.60;4.70;;;;;;;18.66;64.32;96883.02;105560;1292;137863;-88
2023/05/30 11:35:43;;;;;;;10.40;5.30;;;;;;;18.65;64.29;96879.84;106018;1292;22637;-87
2023/05/30 11:39:12;;;;;;;7.50;4.70;;;;;;;18.74;62.30;96874.63;106073;1283;22604;-87
2023/05/30 11:42:39;;;;;;;10.50;5.10;;;;;;;18.96;65.32;96876.11;106328;1283;138185;-87
2023/05/30 11:46:07;;;;;;;7.80;5.20;;;;;;;19.09;61.56;96874.48;106649;1283;25495;-87
2023/05/30 11:49:34;;;;;;;10.30;4.80;;;;;;;19.19;62.59;96873.73;106503;1283;137656;-87
2023/05/30 11:53:01;;;;;;;6.90;4.80;;;;;;;19.24;62.11;96882.96;106588;1283;22709;-87
2023/05/30 11:56:29;;;;;;;7.40;4.50;;;;;;;19.18;62.65;96883.61;106550;1276;137926;-85
2023/05/30 11:59:50;;;;;;;;;;;;;;;;;;;;;
2023/05/30 12:02:58;;;;;;;;;;;;;;;19.27;60.79;96882.01;106668;1283;24405;-87
2023/05/30 12:06:25;;;;;;;10.80;6.30;;;;;;;19.20;60.57;96885.07;106799;1283;22955;-87
2023/05/30 12:09:53;;;;;;;11.60;7.60;;;;;;;19.04;60.12;96881.96;106678;1277;22530;-88
2023/05/30 12:13:20;;;;;;;10.00;6.70;;;;;;;18.92;59.14;96880.70;106549;1283;137896;-87
2023/05/30 12:16:47;;;;;;;8.10;5.50;;;;;;;18.84;61.48;96882.85;106598;1283;22778;-87
2023/05/30 12:20:16;;;;;;;12.20;5.80;;;;;;;18.73;61.49;96876.64;106308;1277;138650;-87
2023/05/30 12:23:47;;;;;;;6.90;4.80;;;;;;;18.66;62.65;96873.19;106677;1277;22534;-87
2023/05/30 12:27:17;;;;;;;9.10;4.80;;;;;;;18.64;62.00;96874.90;106715;1277;22552;-87
2023/05/30 12:30:53;;;;;;;8.40;5.10;;;;;;;18.60;61.20;96871.89;106635;1283;22621;-87
2023/05/30 12:34:21;;;;;;;9.00;4.70;;;;;;;18.60;63.98;96872.05;106657;1284;22719;-84
2023/05/30 12:37:49;;;;;;;9.60;4.70;;;;;;;18.60;61.72;96867.64;106522;1277;138047;-84
2023/05/30 12:44:43;;;;;;;7.40;5.00;;;;;;;18.85;62.74;96865.91;109680;1260;137550;-85
2023/05/30 12:48:10;;;;;;;6.60;4.80;;;;;;;18.93;63.53;96869.41;109778;1260;22525;-84
2023/05/30 12:51:38;;;;;;;7.80;4.60;;;;;;;19.05;60.69;96869.58;108083;1282;24288;-83
2023/05/30 12:55:04;;;;;;;7.20;4.90;;;;;;;19.28;60.16;96868.54;106506;1284;138815;-84
2023/05/30 12:58:33;;;;;;;9.40;5.10;;;;;;;19.54;60.59;96873.04;106645;1277;24411;-84
2023/05/30 13:02:00;;;;;;;10.10;5.20;;;;;;;19.68;56.55;96864.11;106441;1284;137400;-84
2023/05/30 13:05:27;;;;;;;5.60;5.10;;;;;;;19.77;59.78;96866.30;106574;1277;25075;-87
2023/05/30 13:08:54;;;;;;;8.50;4.80;;;;;;;19.71;58.95;96872.55;106562;1277;138628;-85
2023/05/30 13:12:22;;;;;;;6.10;4.60;;;;;;;19.68;58.60;96867.71;106590;1277;22655;-85
2023/05/30 13:15:49;;;;;;;8.90;4.70;;;;;;;19.64;59.21;96865.98;106584;1278;22543;-86
2023/05/30 13:19:16;;;;;;;6.10;4.50;;;;;;;19.77;58.39;96863.44;106493;1276;137531;-85
2023/05/30 13:22:44;;;;;;;8.20;4.60;;;;;;;19.81;57.67;96866.85;106604;1281;22583;-85
2023/05/30 13:26:11;;;;;;;7.10;4.40;;;;;;;19.78;59.15;96867.95;106471;1284;137542;-85
2023/05/30 13:29:30;;;;;;;;;;;;;;;;;;;;;
2023/05/30 13:32:58;;;;;;;5.30;3.90;;;;;;;19.75;59.36;96864.52;106480;1277;137549;-85
2023/05/30 13:36:26;;;;;;;6.60;4.10;;;;;;;19.71;59.04;96864.10;106531;1283;22542;-85
2023/05/30 13:39:54;;;;;;;5.90;3.80;;;;;;;19.67;60.00;96859.61;106578;1277;22541;-85
2023/05/30 13:43:21;;;;;;;6.70;4.20;;;;;;;19.68;57.97;96861.03;106483;1284;138508;-85
2023/05/30 13:46:47;;;;;;;7.80;3.90;;;;;;;19.72;59.64;96860.16;106580;1279;24279;-84
2023/05/30 13:50:17;;;;;;;7.20;4.00;;;;;;;19.74;57.56;96855.05;106546;1283;137313;-85
2023/05/30 13:53:43;;;;;;;5.30;4.00;;;;;;;19.73;57.13;96860.67;106644;1283;24065;-85
2023/05/30 13:57:11;;;;;;;4.50;3.30;;;;;;;19.73;58.63;96853.92;106491;1284;137738;-85
2023/05/30 14:00:37;;;;;;;9.50;4.20;;;;;;;19.81;58.90;96856.92;106631;1284;22535;-85
2023/05/30 14:04:05;;;;;;;13.40;4.50;;;;;;;19.80;57.45;96853.61;106674;1283;24251;-85
2023/05/30 14:07:32;;;;;;;8.10;4.30;;;;;;;19.82;58.41;96856.74;106630;1284;138602;-85
2023/05/30 14:11:00;;;;;;;8.50;4.70;;;;;;;19.76;57.16;96861.01;106715;1283;24299;-85
2023/05/30 14:14:28;;;;;;;7.60;4.10;;;;;;;19.71;57.08;96862.05;106538;1278;137512;-85
2023/05/30 14:17:54;;;;;;;6.50;4.40;;;;;;;19.69;59.07;96864.80;106586;1283;22658;-85
2023/05/30 14:21:21;;;;;;;7.60;4.50;;;;;;;19.63;59.89;96874.49;106586;1278;137580;-85
2023/05/30 14:24:48;;;;;;;9.10;4.60;;;;;;;19.53;57.65;96871.41;106675;1276;24218;-86
2023/05/30 14:28:15;;;;;;;7.00;3.90;;;;;;;19.47;56.69;96866.95;106727;1279;22809;-87
2023/05/30 14:31:44;;;;;;;5.50;4.40;;;;;;;19.46;57.72;96869.48;106549;1284;137590;-86
2023/05/30 14:35:09;;;;;;;;;;;;;;;;;;;;;
2023/05/30 14:38:29;;;;;;;;;;;;;;;;;;;;;
2023/05/30 14:42:05;;;;;;;5.80;3.70;;;;;;;19.75;59.94;96869.56;109878;1266;23090;-86
2023/05/30 14:45:33;;;;;;;7.80;4.20;;;;;;;19.83;58.49;96869.17;109746;1260;137337;-86
2023/05/30 14:49:00;;;;;;;6.90;3.90;;;;;;;19.95;59.52;96870.02;109763;1276;23350;-86
2023/05/30 14:52:27;;;;;;;9.60;4.30;;;;;;;20.05;56.75;96866.46;109860;1266;22300;-85
2023/05/30 14:55:55;;;;;;;9.30;3.90;;;;;;;20.21;54.64;96870.04;109736;1279;137689;-86
2023/05/30 14:59:22;;;;;;;9.10;4.20;;;;;;;20.37;53.13;96875.95;106653;1277;23377;-85
2023/05/30 15:02:49;;;;;;;6.80;3.80;;;;;;;20.51;54.15;96869.23;106575;1282;137428;-85
2023/05/30 15:06:17;;;;;;;6.20;3.50;;;;;;;20.62;57.70;96872.20;106683;1279;24753;-85
2023/05/30 15:09:44;;;;;;;8.50;4.20;;;;;;;20.59;54.36;96876.10;109670;1264;137262;-86
2023/05/30 15:13:11;;;;;;;5.10;3.50;;;;;;;20.46;54.35;96884.21;109828;1261;22558;-86
2023/05/30 15:16:36;;;;;;;;;;;;;;;;;;;;;
2023/05/30 15:20:05;;;;;;;5.70;3.50;;;;;;;20.31;55.49;96884.40;106587;1282;138071;-85
2023/05/30 15:23:32;;;;;;;4.40;3.30;;;;;;;20.29;54.79;96883.30;106669;1274;25353;-85
2023/05/30 15:27:02;;;;;;;6.20;3.70;;;;;;;20.31;54.97;96883.23;106637;1275;137600;-85
2023/05/30 15:30:27;;;;;;;5.90;3.80;;;;;;;20.40;54.65;96882.56;106704;1280;22653;-85
2023/05/30 15:33:54;;;;;;;7.50;4.00;;;;;;;20.49;53.69;96878.05;106640;1283;22527;-85
2023/05/30 15:40:49;;;;;;;4.10;3.50;;;;;;;20.66;55.64;96873.14;106782;1280;25311;-85
2023/05/30 15:44:16;;;;;;;4.50;3.70;;;;;;;20.73;55.28;96871.95;106489;1279;138195;-85
2023/05/30 15:47:43;;;;;;;6.20;3.30;;;;;;;20.78;55.82;96869.98;106644;1279;22576;-85
2023/05/30 15:51:10;;;;;;;8.50;3.40;;;;;;;20.76;54.63;96873.16;106530;1275;137699;-86
2023/05/30 15:54:38;;;;;;;5.10;3.50;;;;;;;20.75;54.14;96878.86;106716;1283;24244;-85
2023/05/30 15:58:05;;;;;;;5.40;3.10;;;;;;;20.78;53.08;96877.64;106656;1282;22665;-85
2023/05/30 16:01:33;;;;;;;8.30;3.40;;;;;;;20.79;54.69;96883.16;106708;1283;25346;-85
2023/05/30 16:05:00;;;;;;;4.80;3.10;;;;;;;20.71;54.17;96878.88;106683;1283;25246;-85
2023/05/30 16:08:18;;;;;;;;;;;;;;;;;;;;;
2023/05/30 16:11:47;;;;;;;5.90;3.30;;;;;;;20.50;55.36;96878.98;106679;1283;25326;-85
2023/05/30 16:15:14;;;;;;;8.00;3.80;;;;;;;20.31;55.11;96877.91;106541;1283;137540;-86
2023/05/30 16:18:43;;;;;;;9.00;3.80;;;;;;;20.20;54.93;96890.18;106686;1283;24327;-85
2023/05/30 16:22:10;;;;;;;5.10;3.20;;;;;;;20.07;56.51;96893.37;106708;1283;23033;-85